createdAt,value
2022-10-07T00:01:24.869Z,61.76
2022-10-07T00:06:28.085Z,62.02
2022-10-07T00:11:31.873Z,62.00
2022-10-07T00:16:38.297Z,62.14
2022-10-07T00:21:41.428Z,62.16
2022-10-07T00:26:44.480Z,62.50
2022-10-07T00:31:47.440Z,62.57
2022-10-07T00:36:51.049Z,62.58
2022-10-07T00:41:53.979Z,62.51
2022-10-07T00:46:59.457Z,62.54
2022-10-07T00:52:02.634Z,62.51
2022-10-07T00:57:05.767Z,62.70
2022-10-07T01:02:08.960Z,62.70
2022-10-07T01:13:37.192Z,62.90
2022-10-07T01:18:53.895Z,63.00
2022-10-07T01:24:03.120Z,62.89
2022-10-07T01:29:12.314Z,62.71
2022-10-07T01:34:17.329Z,62.81
2022-10-07T01:39:25.815Z,62.82
2022-10-07T01:44:30.716Z,62.94
2022-10-07T01:49:34.542Z,62.97
2022-10-07T01:55:03.575Z,62.99
2022-10-07T02:00:12.121Z,62.96
2022-10-07T02:06:06.386Z,63.04
2022-10-07T02:11:12.246Z,62.71
2022-10-07T02:16:41.866Z,62.88
2022-10-07T02:21:49.273Z,62.76
2022-10-07T02:26:54.357Z,62.72
2022-10-07T02:32:02.674Z,62.82
2022-10-07T02:37:24.128Z,62.94
2022-10-07T02:42:33.768Z,62.79
2022-10-07T02:47:43.184Z,62.93
2022-10-07T02:52:46.962Z,63.01
2022-10-07T02:57:55.429Z,62.95
2022-10-07T03:03:05.313Z,62.95
2022-10-07T03:08:23.416Z,62.94
2022-10-07T03:13:26.810Z,62.97
2022-10-07T03:18:34.609Z,62.86
2022-10-07T03:24:05.125Z,63.19
2022-10-07T03:29:14.696Z,63.06
2022-10-07T03:34:19.600Z,63.09
2022-10-07T03:39:23.457Z,63.27
2022-10-07T03:44:26.999Z,63.47
2022-10-07T03:49:31.009Z,63.45
2022-10-07T03:54:34.375Z,63.36
2022-10-07T03:59:37.376Z,63.03
2022-10-07T04:04:41.261Z,63.33
2022-10-07T04:09:44.240Z,63.18
2022-10-07T04:14:47.230Z,63.25
2022-10-07T04:19:50.265Z,63.00
2022-10-07T04:25:12.293Z,63.06
2022-10-07T04:30:15.335Z,63.38
2022-10-07T04:35:22.416Z,63.23
2022-10-07T04:40:27.575Z,63.41
2022-10-07T04:45:35.419Z,63.37
2022-10-07T04:50:39.197Z,63.39
2022-10-07T04:55:46.696Z,63.21
2022-10-07T05:00:52.111Z,63.15
2022-10-07T05:06:05.546Z,63.04
2022-10-07T05:11:09.221Z,63.03
2022-10-07T05:16:17.808Z,63.22
2022-10-07T05:21:21.203Z,63.25
2022-10-07T05:26:24.941Z,63.34
2022-10-07T05:31:32.895Z,63.69
2022-10-07T05:36:38.872Z,63.61
2022-10-07T05:41:45.603Z,63.79
2022-10-07T05:46:49.875Z,63.99
2022-10-07T05:51:53.205Z,63.82
2022-10-07T05:56:56.412Z,64.10
2022-10-07T06:02:00.982Z,64.51
2022-10-07T06:07:05.503Z,64.41
2022-10-07T06:12:28.493Z,64.59
2022-10-07T06:17:32.082Z,64.50
2022-10-07T06:22:36.236Z,64.77
2022-10-07T06:27:39.402Z,65.05
2022-10-07T06:32:42.573Z,65.32
2022-10-07T06:37:46.482Z,65.29
2022-10-07T06:42:49.801Z,65.41
2022-10-07T06:47:53.327Z,65.54
2022-10-07T06:52:57.463Z,65.69
2022-10-07T06:58:05.119Z,66.00
2022-10-07T07:03:12.360Z,66.31
2022-10-07T07:08:18.644Z,66.08
2022-10-07T07:13:22.494Z,66.43
2022-10-07T07:18:26.074Z,66.41
2022-10-07T07:23:29.186Z,66.70
2022-10-07T07:28:33.532Z,66.21
2022-10-07T07:33:40.464Z,66.39
2022-10-07T07:38:52.371Z,65.92
2022-10-07T07:43:58.354Z,65.93
2022-10-07T07:49:02.963Z,66.07
2022-10-07T07:54:09.000Z,65.95
2022-10-07T07:59:12.328Z,65.68
2022-10-07T08:04:16.226Z,65.80
2022-10-07T08:09:19.116Z,65.74
2022-10-07T08:14:23.646Z,65.56
2022-10-07T08:19:30.497Z,65.39
2022-10-07T08:24:36.256Z,65.37
2022-10-07T08:29:40.079Z,65.14
2022-10-07T08:34:43.080Z,65.23
2022-10-07T08:39:45.985Z,65.18
2022-10-07T08:44:50.414Z,65.05
2022-10-07T08:50:07.738Z,65.24
2022-10-07T08:55:20.889Z,64.93
2022-10-07T09:00:25.050Z,64.52
2022-10-07T09:05:34.216Z,64.37
2022-10-07T09:10:44.311Z,64.43
2022-10-07T09:15:58.738Z,64.07
2022-10-07T09:21:05.048Z,64.24
2022-10-07T09:26:13.070Z,67.03
2022-10-07T09:31:17.099Z,66.07
2022-10-07T09:36:20.364Z,64.23
2022-10-07T09:41:32.986Z,63.45
2022-10-07T09:46:54.104Z,62.89
2022-10-07T09:52:23.406Z,62.66
2022-10-07T09:57:31.547Z,62.31
2022-10-07T10:02:35.081Z,62.17
2022-10-07T10:07:39.149Z,62.07
2022-10-07T10:12:53.568Z,61.87
2022-10-07T10:17:57.502Z,61.92
2022-10-07T10:23:02.954Z,61.94
2022-10-07T10:28:21.025Z,62.24
2022-10-07T10:33:36.634Z,62.16
2022-10-07T10:38:47.227Z,61.73
2022-10-07T10:43:55.809Z,61.22
2022-10-07T10:49:37.866Z,60.88
2022-10-07T10:54:59.001Z,60.52
2022-10-07T11:00:05.414Z,60.38
2022-10-07T11:05:22.108Z,60.42
2022-10-07T11:10:36.628Z,60.27
2022-10-07T11:15:45.226Z,60.15
2022-10-07T11:20:50.424Z,59.95
2022-10-07T11:26:00.262Z,59.78
2022-10-07T11:31:11.237Z,59.81
2022-10-07T11:36:22.027Z,59.90
2022-10-07T11:41:32.134Z,59.91
2022-10-07T11:46:40.076Z,59.44
2022-10-07T11:51:50.621Z,59.41
2022-10-07T11:56:57.755Z,59.17
2022-10-07T12:02:01.457Z,58.66
2022-10-07T12:07:35.230Z,58.07
2022-10-07T12:12:43.420Z,57.81
2022-10-07T12:17:56.726Z,57.46
2022-10-07T12:23:20.823Z,57.02
2022-10-07T12:28:42.078Z,57.03
2022-10-07T12:33:45.169Z,57.16
2022-10-07T12:38:57.528Z,56.67
2022-10-07T12:44:27.970Z,56.07
2022-10-07T12:49:38.749Z,55.41
2022-10-07T12:54:51.015Z,55.33
2022-10-07T13:00:13.597Z,55.17
2022-10-07T13:05:54.345Z,54.72
2022-10-07T13:11:09.184Z,54.71
2022-10-07T13:16:21.621Z,54.38
2022-10-07T13:21:53.768Z,53.88
2022-10-07T13:26:57.652Z,54.09
2022-10-07T13:32:15.458Z,54.18
2022-10-07T13:37:31.778Z,54.01
2022-10-07T13:42:35.374Z,53.80
2022-10-07T13:47:38.556Z,53.73
2022-10-07T13:52:45.218Z,53.90
2022-10-07T13:57:48.663Z,53.99
2022-10-07T14:02:52.454Z,54.12
2022-10-07T14:08:00.783Z,54.26
2022-10-07T14:13:09.289Z,54.37
2022-10-07T14:18:15.403Z,54.43
2022-10-07T14:23:22.309Z,54.49
2022-10-07T14:28:25.371Z,54.68
2022-10-07T14:34:20.542Z,54.79
2022-10-07T14:39:32.474Z,54.87
2022-10-07T14:44:36.132Z,55.00
2022-10-07T14:49:42.289Z,55.16
2022-10-07T14:54:45.901Z,55.48
2022-10-07T14:59:50.153Z,55.63
2022-10-07T15:04:53.450Z,55.76
2022-10-07T15:09:56.806Z,55.84
2022-10-07T15:14:59.902Z,55.96
2022-10-07T15:20:03.790Z,56.10
2022-10-07T15:25:08.463Z,56.24
2022-10-07T15:30:12.238Z,56.35
2022-10-07T15:35:15.307Z,56.68
2022-10-07T15:40:18.337Z,56.94
2022-10-07T15:45:21.305Z,57.08
2022-10-07T15:50:24.125Z,57.17
2022-10-07T15:55:27.033Z,57.38
2022-10-07T16:00:30.014Z,57.54
2022-10-07T16:05:35.330Z,57.70
2022-10-07T16:10:38.253Z,57.86
2022-10-07T16:15:42.474Z,58.00
2022-10-07T16:20:45.617Z,58.00
2022-10-07T16:25:48.550Z,58.15
2022-10-07T16:30:52.326Z,58.20
2022-10-07T16:35:55.429Z,58.40
2022-10-07T16:40:58.396Z,58.63
2022-10-07T16:46:04.585Z,58.75
2022-10-07T16:51:18.430Z,58.86
2022-10-07T16:56:22.807Z,58.93
2022-10-07T17:01:27.663Z,59.31
2022-10-07T17:06:31.779Z,59.43
2022-10-07T17:11:36.388Z,59.56
2022-10-07T17:16:43.004Z,59.74
2022-10-07T17:21:47.958Z,59.83
2022-10-07T17:26:52.990Z,59.97
2022-10-07T17:31:58.264Z,59.91
2022-10-07T17:37:01.278Z,60.34
2022-10-07T17:42:04.787Z,60.37
2022-10-07T17:47:08.060Z,60.52
2022-10-07T17:52:13.417Z,60.47
2022-10-07T17:57:16.445Z,60.74
2022-10-07T18:02:19.866Z,60.93
2022-10-07T18:07:23.112Z,61.03
2022-10-07T18:12:44.564Z,61.08
2022-10-07T18:17:51.023Z,61.20
2022-10-07T18:22:57.735Z,61.21
2022-10-07T18:28:02.749Z,61.32
2022-10-07T18:33:06.189Z,61.42
2022-10-07T18:38:09.125Z,61.76
2022-10-07T18:43:12.184Z,61.76
2022-10-07T18:48:15.738Z,61.83
2022-10-07T18:53:18.661Z,61.93
2022-10-07T18:58:21.653Z,62.15
2022-10-07T19:03:24.513Z,62.10
2022-10-07T19:08:27.416Z,62.34
2022-10-07T19:13:48.483Z,62.43
2022-10-07T19:18:54.194Z,62.59
2022-10-07T19:24:01.230Z,62.75
2022-10-07T19:29:06.642Z,62.74
2022-10-07T19:34:21.263Z,62.94
2022-10-07T19:39:24.142Z,63.00
2022-10-07T19:44:27.419Z,63.02
2022-10-07T19:49:30.382Z,63.02
2022-10-07T19:54:35.987Z,63.12
2022-10-07T19:59:38.753Z,63.36
2022-10-07T20:04:42.051Z,63.43
2022-10-07T20:09:46.895Z,63.37
2022-10-07T20:14:50.042Z,63.50
2022-10-07T20:19:53.827Z,63.55
2022-10-07T20:24:56.768Z,63.66
2022-10-07T20:30:02.559Z,63.80
2022-10-07T20:35:09.967Z,63.77
2022-10-07T20:40:31.631Z,63.87
2022-10-07T20:45:55.361Z,63.88
2022-10-07T20:51:07.292Z,63.76
2022-10-07T20:56:10.260Z,63.76
2022-10-07T21:01:21.746Z,63.81
2022-10-07T21:06:33.797Z,63.61
2022-10-07T21:11:37.641Z,63.73
2022-10-07T21:16:43.178Z,63.70
2022-10-07T21:21:46.128Z,63.78
2022-10-07T21:26:49.072Z,63.74
2022-10-07T21:31:53.306Z,63.83
2022-10-07T21:36:57.328Z,63.83
2022-10-07T21:42:00.269Z,63.85
2022-10-07T21:47:05.188Z,63.97
2022-10-07T21:52:08.617Z,63.75
2022-10-07T21:57:11.484Z,63.89
2022-10-07T22:02:14.767Z,64.05
2022-10-07T22:07:36.127Z,63.87
2022-10-07T22:12:39.197Z,64.01
2022-10-07T22:17:42.162Z,64.02
2022-10-07T22:22:45.257Z,64.16
2022-10-07T22:27:51.628Z,63.97
2022-10-07T22:32:54.477Z,64.03
2022-10-07T22:37:58.799Z,64.04
2022-10-07T22:43:01.798Z,64.11
2022-10-07T22:48:05.022Z,64.12
2022-10-07T22:53:08.187Z,64.19
2022-10-07T22:58:11.473Z,64.20
2022-10-07T23:03:14.323Z,64.26
2022-10-07T23:08:17.310Z,64.33
2022-10-07T23:13:21.131Z,64.11
2022-10-07T23:18:24.041Z,64.20
2022-10-07T23:23:27.275Z,64.22
2022-10-07T23:28:30.484Z,64.32
2022-10-07T23:33:37.349Z,64.24
2022-10-07T23:38:47.370Z,64.19
2022-10-07T23:43:52.355Z,64.29
2022-10-07T23:48:56.352Z,64.45
2022-10-07T23:54:01.087Z,64.26
2022-10-07T23:59:04.146Z,64.40
